Time;durP1;ratioP1;P1;durP2;ratioP2;P2;SDS_P1;SDS_P2;PMS_P1;PMS_P2;Temp;Humidity;BMP_temperature;BMP_pressure;BME280_temperature;BME280_humidity;BME280_pressure;Samples;Min_cycle;Max_cycle;Signal;HPM_P1;HPM_P2
2022/01/05 00:00:49;;;;;;;1.10;0.30;;;6.30;99.90;;;;;;4951270;29;20486;-80
2022/01/05 06:01:53;;;;;;;0.80;0.35;;;5.50;99.90;;;;;;5267582;23;20054;-80
2022/01/05 06:04:20;;;;;;;1.83;0.68;;;5.30;99.90;;;;;;4957336;29;20054;-81
2022/01/05 06:06:47;;;;;;;1.33;0.35;;;5.10;99.90;;;;;;4957196;28;20445;-80
2022/01/05 06:09:14;;;;;;;1.55;0.50;;;4.80;99.90;;;;;;4957401;28;20052;-80
2022/01/05 06:11:41;;;;;;;1.00;0.52;;;4.70;99.90;;;;;;4957652;28;20047;-81
2022/01/05 06:14:08;;;;;;;1.35;0.60;;;4.40;99.90;;;;;;4957449;29;20146;-82
2022/01/05 06:16:36;;;;;;;0.95;0.40;;;4.20;99.90;;;;;;4957359;28;20503;-82
2022/01/05 06:19:04;;;;;;;1.33;0.55;;;4.00;99.90;;;;;;4957278;29;20078;-82
2022/01/05 06:21:31;;;;;;;1.52;0.68;;;3.90;99.90;;;;;;4957164;28;20130;-82
2022/01/05 06:23:58;;;;;;;2.20;0.60;;;3.70;99.90;;;;;;4957469;29;20051;-81
2022/01/05 06:26:25;;;;;;;2.65;0.68;;;3.60;99.90;;;;;;4956860;29;20069;-82
2022/01/05 06:28:52;;;;;;;1.70;0.60;;;3.60;99.90;;;;;;4957182;29;20133;-80
2022/01/05 06:31:20;;;;;;;2.00;0.70;;;3.50;99.90;;;;;;4957013;28;20150;-81
2022/01/05 06:33:47;;;;;;;2.50;0.70;;;3.50;99.90;;;;;;4957023;29;20071;-81
2022/01/05 06:36:16;;;;;;;2.17;0.70;;;3.40;99.90;;;;;;4956748;28;20047;-80
2022/01/05 06:38:43;;;;;;;2.30;0.80;;;3.40;99.90;;;;;;4956164;28;20457;-81
2022/01/05 06:41:10;;;;;;;2.50;0.93;;;3.40;99.90;;;;;;4956625;29;20504;-81
2022/01/05 06:43:37;;;;;;;2.72;0.80;;;3.40;99.90;;;;;;4956974;29;20047;-81
2022/01/05 06:46:04;;;;;;;1.55;0.70;;;3.40;99.90;;;;;;4956454;29;20044;-80
2022/01/05 06:48:31;;;;;;;2.05;0.80;;;3.40;99.90;;;;;;4956675;29;20083;-79
2022/01/05 06:50:58;;;;;;;2.00;0.80;;;3.40;99.90;;;;;;4956524;29;20134;-79
2022/01/05 06:53:27;;;;;;;2.58;0.90;;;3.50;99.90;;;;;;4956537;28;20065;-80
2022/01/05 06:55:54;;;;;;;1.98;0.90;;;3.50;99.90;;;;;;4956773;29;20061;-81
2022/01/05 06:58:22;;;;;;;2.15;0.77;;;3.50;99.90;;;;;;4955758;29;20054;-80
2022/01/05 07:00:49;;;;;;;5.03;0.85;;;3.60;99.90;;;;;;4955177;29;20074;-81
2022/01/05 07:03:16;;;;;;;2.08;0.85;;;3.60;99.90;;;;;;4956054;29;20412;-81
2022/01/05 07:05:43;;;;;;;3.13;1.02;;;3.60;99.90;;;;;;4956532;29;20047;-80
2022/01/05 07:08:10;;;;;;;2.22;0.90;;;3.60;99.90;;;;;;4956382;29;20450;-82
2022/01/05 07:10:38;;;;;;;3.88;1.00;;;3.60;99.90;;;;;;4956622;28;20070;-83
2022/01/05 07:13:05;;;;;;;2.60;1.17;;;3.60;99.90;;;;;;4956171;28;20047;-82
2022/01/05 07:15:33;;;;;;;3.03;0.90;;;3.60;99.90;;;;;;4956046;29;20085;-83
2022/01/05 07:18:00;;;;;;;2.33;0.88;;;3.50;99.90;;;;;;4955979;28;20504;-82
2022/01/05 07:20:27;;;;;;;2.58;1.00;;;3.60;99.90;;;;;;4956140;29;20126;-81
2022/01/05 07:22:55;;;;;;;3.78;1.40;;;3.60;99.90;;;;;;4956137;29;20043;-82
2022/01/05 07:25:22;;;;;;;3.17;1.10;;;3.60;99.90;;;;;;4955836;28;20544;-81
2022/01/05 07:27:50;;;;;;;2.00;0.98;;;3.70;99.90;;;;;;4955985;29;20130;-79
2022/01/05 07:30:17;;;;;;;2.72;1.08;;;3.70;99.90;;;;;;4955994;29;20103;-81
2022/01/05 07:32:44;;;;;;;3.53;1.50;;;3.70;99.90;;;;;;4956104;29;20054;-80
2022/01/05 07:35:11;;;;;;;3.25;1.30;;;3.70;99.90;;;;;;4955478;29;20503;-80
2022/01/05 07:37:38;;;;;;;3.47;1.10;;;3.70;99.90;;;;;;4955599;29;20123;-81
2022/01/05 07:40:07;;;;;;;2.45;0.95;;;3.80;99.90;;;;;;4955605;29;20137;-80
2022/01/05 07:42:35;;;;;;;2.53;1.00;;;3.80;99.90;;;;;;4953302;29;20044;-80
2022/01/05 07:45:06;;;;;;;3.00;1.10;;;3.90;99.90;;;;;;4949796;29;20051;-80
2022/01/05 07:47:34;;;;;;;4.88;1.10;;;3.90;99.90;;;;;;4954196;29;20474;-79
2022/01/05 07:50:01;;;;;;;2.63;1.15;;;3.90;99.90;;;;;;4954626;28;20130;-80
2022/01/05 07:52:29;;;;;;;3.15;1.23;;;3.90;99.90;;;;;;4954651;29;20079;-79
2022/01/05 07:54:56;;;;;;;3.13;1.17;;;3.90;99.90;;;;;;4955137;29;20082;-80
2022/01/05 07:57:23;;;;;;;2.40;1.08;;;3.90;99.90;;;;;;4954689;29;20135;-82
2022/01/05 07:59:50;;;;;;;3.03;1.00;;;3.90;99.90;;;;;;4937419;29;20485;-80
2022/01/05 08:02:19;;;;;;;4.07;1.30;;;3.90;99.90;;;;;;4954543;29;20134;-80
2022/01/05 08:04:49;;;;;;;3.30;1.40;;;3.90;99.90;;;;;;4954668;29;20130;-80
2022/01/05 08:07:16;;;;;;;5.47;1.00;;;3.80;99.90;;;;;;4954607;29;20063;-82
2022/01/05 08:09:43;;;;;;;2.22;0.98;;;3.60;99.90;;;;;;4953648;29;20138;-81
2022/01/05 08:12:11;;;;;;;2.75;1.10;;;3.40;99.90;;;;;;4954635;29;20051;-80
2022/01/05 08:14:39;;;;;;;3.95;1.30;;;3.30;99.90;;;;;;4955046;28;20583;-80
2022/01/05 08:17:06;;;;;;;3.50;0.95;;;3.20;99.90;;;;;;4952241;29;20051;-85
2022/01/05 08:19:34;;;;;;;4.22;1.00;;;3.10;99.90;;;;;;4955188;28;20126;-81
2022/01/05 08:22:01;;;;;;;3.60;1.17;;;3.00;99.90;;;;;;4954902;29;20055;-82
2022/01/05 08:24:29;;;;;;;2.95;0.98;;;2.90;99.90;;;;;;4947709;29;20123;-83
2022/01/05 08:26:56;;;;;;;3.33;1.02;;;2.90;99.90;;;;;;4955242;29;20130;-79
2022/01/05 08:29:23;;;;;;;3.22;1.10;;;2.90;99.90;;;;;;4954647;29;20126;-79
2022/01/05 08:31:50;;;;;;;4.55;1.38;;;2.90;99.90;;;;;;4955509;29;20043;-86
2022/01/05 08:34:17;;;;;;;3.10;1.17;;;2.90;99.90;;;;;;4955884;28;20412;-85
2022/01/05 08:36:46;;;;;;;4.93;1.25;;;2.90;99.90;;;;;;4954416;29;20560;-78
2022/01/05 08:39:15;;;;;;;3.65;1.13;;;3.00;99.90;;;;;;4941961;28;20055;-79
2022/01/05 08:41:42;;;;;;;4.35;1.23;;;3.00;99.90;;;;;;4954730;28;20122;-82
2022/01/05 08:44:11;;;;;;;4.53;0.95;;;3.10;99.90;;;;;;4954462;29;20082;-84
2022/01/05 08:46:39;;;;;;;3.42;1.20;;;3.10;99.90;;;;;;4954738;28;20549;-83
2022/01/05 08:49:06;;;;;;;2.90;1.35;;;3.10;99.90;;;;;;4954513;28;20047;-79
2022/01/05 08:51:33;;;;;;;5.35;1.38;;;3.10;99.90;;;;;;4951596;28;20051;-83
2022/01/05 08:54:02;;;;;;;3.25;1.40;;;3.20;99.90;;;;;;4954056;29;20449;-85
2022/01/05 08:56:29;;;;;;;6.15;1.55;;;3.30;99.90;;;;;;4954858;28;20130;-85
2022/01/05 08:58:56;;;;;;;3.88;1.25;;;3.30;99.90;;;;;;4949607;28;20576;-84
2022/01/05 09:01:24;;;;;;;4.70;1.25;;;3.20;99.90;;;;;;4954484;28;20134;-86
2022/01/05 09:03:52;;;;;;;4.97;1.25;;;3.30;99.90;;;;;;4954136;29;20047;-83
2022/01/05 09:06:19;;;;;;;4.72;1.27;;;3.20;99.90;;;;;;4952815;29;21258;-84
2022/01/05 09:08:46;;;;;;;3.75;1.30;;;3.20;99.90;;;;;;4954296;29;20039;-85
2022/01/05 09:11:15;;;;;;;5.05;1.30;;;3.20;99.90;;;;;;4953902;29;20405;-84
2022/01/05 09:13:42;;;;;;;4.03;1.48;;;3.20;99.90;;;;;;4953279;29;20043;-84
2022/01/05 09:16:10;;;;;;;7.80;1.58;;;3.20;99.90;;;;;;4953732;29;20513;-83
2022/01/05 09:18:37;;;;;;;4.53;1.38;;;3.20;99.90;;;;;;4952671;29;20146;-83
2022/01/05 09:21:04;;;;;;;3.92;1.40;;;3.20;99.90;;;;;;4954240;29;20552;-81
2022/01/05 09:23:31;;;;;;;5.97;1.38;;;3.20;99.90;;;;;;4954378;29;20130;-84
2022/01/05 09:25:58;;;;;;;4.43;1.10;;;3.20;99.90;;;;;;4950772;29;20047;-83
2022/01/05 09:28:26;;;;;;;4.05;1.13;;;3.20;99.90;;;;;;4952692;29;20134;-82
2022/01/05 09:30:53;;;;;;;5.90;1.35;;;3.20;99.90;;;;;;4947308;29;20114;-84
2022/01/05 09:33:22;;;;;;;4.57;1.30;;;3.20;99.30;;;;;;4952593;29;20169;-84
2022/01/05 09:35:59;;;;;;;6.30;1.40;;;3.20;97.50;;;;;;4950069;28;20524;-83
2022/01/05 09:38:37;;;;;;;5.57;1.35;;;3.10;97.00;;;;;;4950984;29;20448;-84
2022/01/05 09:43:55;;;;;;;5.82;1.33;;;3.00;96.90;;;;;;4950779;29;20593;-84
2022/01/05 09:46:35;;;;;;;4.95;1.50;;;3.00;97.50;;;;;;4949156;29;20496;-83
2022/01/05 09:49:11;;;;;;;4.40;1.30;;;3.00;98.30;;;;;;4952117;29;20471;-83
2022/01/05 09:51:41;;;;;;;6.78;1.50;;;3.00;97.10;;;;;;4947691;29;20106;-84
2022/01/05 09:54:12;;;;;;;4.13;1.33;;;3.00;97.30;;;;;;4953555;29;20500;-81
2022/01/05 09:56:40;;;;;;;6.72;1.50;;;3.00;97.30;;;;;;4954033;29;20094;-82
2022/01/05 09:59:08;;;;;;;4.57;1.30;;;3.10;97.70;;;;;;4949017;29;20055;-81
2022/01/05 10:01:37;;;;;;;5.45;1.40;;;3.10;97.20;;;;;;4949802;29;20066;-82
2022/01/05 10:04:05;;;;;;;4.10;1.40;;;3.10;97.40;;;;;;4946423;29;20126;-80
2022/01/05 10:06:34;;;;;;;6.55;1.55;;;3.10;98.00;;;;;;4948229;29;20438;-81
2022/01/05 10:09:02;;;;;;;5.78;1.20;;;3.10;97.00;;;;;;4949188;29;20457;-80
2022/01/05 10:11:29;;;;;;;6.70;1.77;;;3.20;97.40;;;;;;4949314;28;20051;-81
2022/01/05 10:13:57;;;;;;;7.15;1.60;;;3.30;98.10;;;;;;4932820;29;20533;-80
2022/01/05 10:16:26;;;;;;;4.72;1.60;;;3.20;97.10;;;;;;4953099;29;20043;-83
2022/01/05 10:18:53;;;;;;;4.57;1.40;;;3.30;95.30;;;;;;4949247;29;20465;-82
2022/01/05 10:21:20;;;;;;;6.00;1.38;;;3.20;93.60;;;;;;4935706;28;20490;-81
2022/01/05 10:23:51;;;;;;;6.22;1.50;;;3.30;93.40;;;;;;4951464;29;20044;-81
2022/01/05 10:26:28;;;;;;;5.65;1.20;;;3.20;92.50;;;;;;4953585;29;20387;-82
2022/01/05 10:28:58;;;;;;;4.60;1.27;;;3.30;92.90;;;;;;4953923;29;20043;-81
2022/01/05 10:31:30;;;;;;;6.22;1.45;;;3.20;93.10;;;;;;4953216;29;20485;-82
2022/01/05 10:33:58;;;;;;;6.60;1.52;;;3.20;93.30;;;;;;4953540;29;20126;-81
2022/01/05 10:36:43;;;;;;;5.25;1.30;;;3.30;93.50;;;;;;4952484;29;20583;-79
2022/01/05 10:39:10;;;;;;;6.68;1.20;;;3.30;92.10;;;;;;4952421;28;20150;-80
2022/01/05 10:41:40;;;;;;;5.63;1.30;;;3.30;92.50;;;;;;4952729;28;20433;-81
2022/01/05 10:44:14;;;;;;;8.50;1.40;;;3.20;92.60;;;;;;4932585;29;20074;-84
2022/01/05 10:46:45;;;;;;;6.65;1.50;;;3.20;91.90;;;;;;4951147;29;20538;-83
2022/01/05 10:49:28;;;;;;;6.55;1.75;;;3.20;92.70;;;;;;4952627;29;20053;-81
2022/01/05 10:51:57;;;;;;;7.13;1.50;;;3.10;94.40;;;;;;4949237;29;20572;-81
2022/01/05 10:54:26;;;;;;;6.13;1.40;;;3.10;95.40;;;;;;4952386;29;20047;-80
2022/01/05 10:56:54;;;;;;;5.53;1.30;;;3.20;96.70;;;;;;4953034;29;20135;-81
2022/01/05 10:59:34;;;;;;;7.05;1.45;;;;;;;;;;4953151;29;20690;-80
2022/01/05 11:02:24;;;;;;;5.85;1.70;;;;;;;;;;4933996;29;20066;-82
2022/01/05 11:04:52;;;;;;;8.05;1.50;;;;;;;;;;4948593;29;20057;-83
2022/01/05 11:07:24;;;;;;;7.03;1.63;;;;;;;;;;4954224;29;20139;-83
2022/01/05 11:09:55;;;;;;;10.65;2.00;;;;;;;;;;4954476;29;20051;-82
2022/01/05 11:12:32;;;;;;;7.97;1.85;;;;;;;;;;4953676;29;20082;-81
2022/01/05 11:15:18;;;;;;;6.03;1.40;;;;;;;;;;4953741;29;20051;-82
2022/01/05 11:18:11;;;;;;;8.02;1.42;;;;;;;;;;4955088;29;20051;-82
2022/01/05 11:20:43;;;;;;;8.73;1.48;;;;;;;;;;4954264;29;20057;-81
2022/01/05 11:23:11;;;;;;;6.35;1.52;;;;;;;;;;4953277;29;20057;-83
2022/01/05 11:25:41;;;;;;;5.10;1.83;;;;;;;;;;4955315;28;20126;-81
2022/01/05 11:28:09;;;;;;;8.23;1.70;;;;;;;;;;4955904;29;20079;-81
2022/01/05 11:30:37;;;;;;;7.05;1.38;;;;;;;;;;4955953;29;20404;-81
2022/01/05 11:33:05;;;;;;;5.28;1.42;;;;;;;;;;4955677;29;20133;-81
2022/01/05 11:35:35;;;;;;;14.38;4.90;;;;;;;;;;4955971;28;20047;-82
2022/01/05 11:38:02;;;;;;;8.25;1.83;;;;;;;;;;4956071;28;20503;-81
2022/01/05 11:40:30;;;;;;;14.05;4.45;;;;;;;;;;4954796;29;20086;-80
2022/01/05 11:43:01;;;;;;;7.82;2.38;;;;;;;;;;4956208;28;20047;-83
2022/01/05 11:45:32;;;;;;;10.70;1.67;;;;;;;;;;4956276;28;20061;-86
2022/01/05 11:48:15;;;;;;;5.90;1.40;;;;;;;;;;4956832;28;20134;-85
2022/01/05 11:50:49;;;;;;;6.90;1.55;;;;;;;;;;4956343;28;20063;-83
2022/01/05 11:53:19;;;;;;;6.65;1.73;;;;;;;;;;4956100;29;20047;-82
2022/01/05 11:56:14;;;;;;;6.13;1.33;;;;;;;;;;4955880;29;20138;-83
2022/01/05 11:58:53;;;;;;;5.53;1.58;;;;;;;;;;4955916;28;20680;-81
2022/01/05 12:01:29;;;;;;;8.73;1.50;;;;;;;;;;4955902;28;20138;-84
2022/01/05 12:04:09;;;;;;;6.22;1.50;;;;;;;;;;4955398;28;20118;-85
2022/01/05 12:07:04;;;;;;;6.43;1.83;;;;;;;;;;4953641;29;20043;-81
2022/01/05 12:09:33;;;;;;;5.90;1.30;;;;;;;;;;4954525;29;20070;-81
2022/01/05 12:12:03;;;;;;;8.13;1.30;;;;;;;;;;4955093;28;20130;-84
2022/01/05 12:14:55;;;;;;;9.60;1.70;;;;;;;;;;4947840;29;20043;-82
2022/01/05 12:17:22;;;;;;;6.63;1.40;;;;;;;;;;4932269;29;20058;-84
2022/01/05 12:20:16;;;;;;;7.82;1.40;;;;;;;;;;4955299;29;20054;-81
2022/01/05 12:22:45;;;;;;;;;;;;;;;;;;4900184;28;20122;-81
2022/01/05 12:25:20;;;;;;;8.35;1.63;;;;;;;;;;4953287;28;20009;-84
2022/01/05 12:28:05;;;;;;;5.05;1.38;;;;;;;;;;4950955;29;20046;-83
2022/01/05 12:30:38;;;;;;;7.55;1.55;;;;;;;;;;4951751;29;20055;-83
2022/01/05 12:33:12;;;;;;;7.00;1.38;;;;;;;;;;4951985;29;20090;-84
2022/01/05 12:36:04;;;;;;;4.05;1.40;;;;;;;;;;4951425;29;20046;-85
2022/01/05 12:38:41;;;;;;;6.45;1.38;;;;;;;;;;4951204;28;20141;-84
2022/01/05 12:41:37;;;;;;;8.18;1.40;;;;;;;;;;4948285;29;20065;-81
2022/01/05 12:44:43;;;;;;;6.38;1.80;;;;;;;;;;4896107;29;20055;-82
2022/01/05 12:47:12;;;;;;;6.72;1.40;;;;;;;;;;4948892;28;20061;-82
2022/01/05 12:49:40;;;;;;;7.15;1.40;;;;;;;;;;4950931;28;20050;-80
2022/01/05 12:52:10;;;;;;;5.43;1.38;;;;;;;;;;4950128;28;20043;-82
2022/01/05 12:54:53;;;;;;;7.18;1.83;;;;;;;;;;4950992;28;20047;-87
2022/01/05 12:57:23;;;;;;;7.57;1.50;;;;;;;;;;4946342;28;20047;-82
2022/01/05 12:59:52;;;;;;;9.05;1.63;;;;;;;;;;4949427;29;20050;-83
2022/01/05 13:02:24;;;;;;;5.57;1.38;;;;;;;;;;4949140;29;20071;-84
2022/01/05 13:04:52;;;;;;;5.25;1.33;;;;;;;;;;4950759;29;20079;-84
2022/01/05 13:07:20;;;;;;;5.18;1.42;;;;;;;;;;4950758;29;20134;-84
2022/01/05 13:09:50;;;;;;;6.78;1.67;;;;;;;;;;4950801;29;20082;-84
2022/01/05 13:12:19;;;;;;;8.30;1.60;;;;;;;;;;4940655;29;20478;-84
2022/01/05 13:14:48;;;;;;;5.03;1.35;;;;;;;;;;4950601;29;20047;-84
2022/01/05 13:17:19;;;;;;;6.78;1.30;;;;;;;;;;4945711;29;20413;-82
2022/01/05 13:19:47;;;;;;;6.40;1.58;;;;;;;;;;4951384;29;20051;-82
2022/01/05 13:22:19;;;;;;;7.05;1.35;;;;;;;;;;4952254;29;20083;-88
2022/01/05 13:25:06;;;;;;;7.57;1.80;;;;;;;;;;4934809;29;20043;-85
2022/01/05 13:27:36;;;;;;;6.28;1.73;;;;;;;;;;4952593;29;20062;-85
2022/01/05 13:30:09;;;;;;;4.80;1.20;;;8.90;67.50;;;;;;4951762;29;20138;-84
2022/01/05 13:32:36;;;;;;;6.22;1.30;;;9.60;65.30;;;;;;4949633;29;20047;-81
2022/01/05 13:35:11;;;;;;;5.93;1.35;;;11.00;59.40;;;;;;4950374;29;20087;-79
2022/01/05 13:37:41;;;;;;;6.13;1.40;;;11.60;54.30;;;;;;4943818;29;20047;-84
2022/01/05 13:40:13;;;;;;;7.22;1.42;;;11.40;52.30;;;;;;4951159;29;20062;-81
2022/01/05 13:42:45;;;;;;;5.63;1.52;;;11.80;51.80;;;;;;4951736;29;20059;-84
2022/01/05 13:45:17;;;;;;;6.40;1.50;;;12.60;50.40;;;;;;4953314;29;20065;-82
2022/01/05 13:47:45;;;;;;;6.68;1.92;;;13.50;48.20;;;;;;4950735;28;20054;-82
2022/01/05 13:50:20;;;;;;;7.10;1.40;;;14.30;76.40;;;;;;4953331;29;20139;-80
2022/01/05 13:53:01;;;;;;;8.00;1.70;;;;;;;;;;4953859;28;20135;-80
2022/01/05 13:55:39;;;;;;;6.65;1.48;;;;;;;;;;4953251;29;20039;-79
2022/01/05 13:58:19;;;;;;;7.35;1.70;;;;;;;;;;4950739;29;20057;-80
2022/01/05 14:00:49;;;;;;;6.97;1.63;;;16.40;76.50;;;;;;4953193;29;20146;-79
2022/01/05 14:03:31;;;;;;;6.60;1.35;;;16.90;74.00;;;;;;4952940;29;20047;-81
2022/01/05 14:05:58;;;;;;;5.57;1.88;;;17.40;73.80;;;;;;4953469;29;20039;-80
2022/01/05 14:08:32;;;;;;;5.80;1.48;;;17.60;71.30;;;;;;4952768;29;20126;-81
2022/01/05 14:11:09;;;;;;;6.03;1.73;;;17.60;71.30;;;;;;4953195;29;20456;-80
2022/01/05 14:13:48;;;;;;;5.90;1.50;;;17.70;70.40;;;;;;4949504;29;20050;-81
2022/01/05 14:16:30;;;;;;;8.95;1.70;;;18.30;71.10;;;;;;4952316;29;20054;-79
2022/01/05 14:19:01;;;;;;;6.47;1.83;;;18.70;70.60;;;;;;4952489;28;20135;-79
2022/01/05 14:21:30;;;;;;;7.75;1.65;;;18.20;37.00;;;;;;4950548;29;20050;-80
2022/01/05 14:23:57;;;;;;;5.80;1.63;;;17.90;38.00;;;;;;4951733;29;20477;-81
2022/01/05 14:26:28;;;;;;;5.45;1.65;;;17.60;38.50;;;;;;4951889;29;20151;-79
2022/01/05 14:28:59;;;;;;;5.47;1.90;;;16.50;40.10;;;;;;4952369;29;20158;-80
2022/01/05 14:31:35;;;;;;;6.68;1.98;;;15.80;40.10;;;;;;4950525;29;20081;-80
2022/01/05 14:34:02;;;;;;;8.18;1.63;;;14.80;41.50;;;;;;4952569;29;20051;-79
2022/01/05 14:36:36;;;;;;;8.02;2.00;;;14.20;42.40;;;;;;4945474;29;20130;-80
2022/01/05 14:39:07;;;;;;;6.07;1.73;;;13.30;46.60;;;;;;4951426;29;20062;-79
2022/01/05 14:41:44;;;;;;;7.22;1.95;;;12.20;74.90;;;;;;4952915;29;20086;-78
2022/01/05 14:44:18;;;;;;;4.95;1.50;;;12.20;64.40;;;;;;4951185;29;20131;-81
2022/01/05 14:46:48;;;;;;;6.68;1.83;;;9.90;49.10;;;;;;4952404;29;20050;-80
2022/01/05 14:49:18;;;;;;;5.50;1.60;;;9.40;50.30;;;;;;4951259;29;20051;-80
2022/01/05 14:51:47;;;;;;;5.55;1.25;;;8.30;53.20;;;;;;4952942;29;20054;-80
2022/01/05 14:54:15;;;;;;;9.30;2.03;;;7.40;55.30;;;;;;4952513;29;20478;-80
2022/01/05 14:56:46;;;;;;;4.40;1.45;;;6.70;57.10;;;;;;4947768;29;20908;-78
2022/01/05 14:59:13;;;;;;;4.72;1.55;;;6.10;59.30;;;;;;4953524;29;20055;-81
2022/01/05 15:01:42;;;;;;;6.28;1.65;;;5.70;60.30;;;;;;4951249;28;20077;-79
2022/01/05 15:04:10;;;;;;;7.63;1.50;;;5.30;61.70;;;;;;4952537;29;20074;-80
2022/01/05 15:06:38;;;;;;;6.28;1.27;;;5.00;63.60;;;;;;4957650;28;20142;-80
2022/01/05 15:09:07;;;;;;;5.95;1.40;;;4.70;64.90;;;;;;4954453;28;20057;-79
2022/01/05 15:11:34;;;;;;;5.22;1.50;;;4.50;65.70;;;;;;4953604;29;20083;-79
2022/01/05 15:14:03;;;;;;;4.30;1.40;;;4.30;67.50;;;;;;4952146;28;20060;-81
2022/01/05 15:16:30;;;;;;;4.88;1.33;;;4.10;69.30;;;;;;4945683;29;20146;-83
2022/01/05 15:18:57;;;;;;;7.15;1.50;;;4.00;71.00;;;;;;4952116;28;20135;-82
2022/01/05 15:21:24;;;;;;;7.53;2.05;;;3.90;72.90;;;;;;4951346;29;20051;-82
2022/01/05 15:23:52;;;;;;;5.40;1.42;;;3.90;75.20;;;;;;4953053;28;20158;-83
2022/01/05 15:26:21;;;;;;;7.75;1.60;;;3.80;77.30;;;;;;4952497;29;20074;-82
2022/01/05 15:28:48;;;;;;;8.07;1.48;;;3.70;79.50;;;;;;4952392;29;20051;-84
2022/01/05 15:31:17;;;;;;;10.30;1.42;;;3.70;81.60;;;;;;4952336;28;20126;-82
2022/01/05 15:33:44;;;;;;;6.97;1.83;;;3.70;84.00;;;;;;4952576;29;20061;-82
2022/01/05 15:36:11;;;;;;;6.47;1.50;;;3.60;85.70;;;;;;4952881;28;20082;-83
2022/01/05 15:38:39;;;;;;;8.38;1.40;;;3.60;87.20;;;;;;4953325;28;20138;-83
2022/01/05 15:41:06;;;;;;;8.82;1.40;;;3.50;87.50;;;;;;4952073;29;20137;-82
2022/01/05 15:43:34;;;;;;;7.20;1.67;;;3.50;88.50;;;;;;4952888;29;20133;-81
2022/01/05 15:46:02;;;;;;;6.07;1.40;;;3.50;88.90;;;;;;4952327;28;20461;-82
2022/01/05 15:48:31;;;;;;;6.95;1.58;;;3.40;89.30;;;;;;4945070;29;20162;-81
2022/01/05 15:50:58;;;;;;;6.30;1.45;;;3.40;88.80;;;;;;4952488;29;20065;-83
2022/01/05 15:53:25;;;;;;;6.00;1.70;;;3.40;89.20;;;;;;4952176;29;20066;-82
2022/01/05 15:55:58;;;;;;;7.00;1.52;;;3.40;90.00;;;;;;4951283;29;20196;-82
2022/01/05 16:01:27;;;;;;;;;;;3.50;90.10;;;;;;4950453;29;20101;-82
2022/01/05 16:04:01;;;;;;;7.45;1.70;;;3.50;89.50;;;;;;4949424;28;19969;-82
2022/01/05 16:06:29;;;;;;;4.28;1.52;;;3.40;89.40;;;;;;4950902;29;20055;-83
2022/01/05 16:08:57;;;;;;;8.52;2.05;;;3.40;88.00;;;;;;4934554;29;20118;-80
2022/01/05 16:11:25;;;;;;;5.63;1.42;;;3.40;88.90;;;;;;4949752;28;20039;-81
2022/01/05 16:13:52;;;;;;;6.07;1.42;;;3.40;89.50;;;;;;4950628;28;20045;-80
2022/01/05 16:16:20;;;;;;;6.35;1.63;;;3.40;90.10;;;;;;4947508;29;20138;-81
2022/01/05 16:18:49;;;;;;;4.82;1.45;;;3.40;88.60;;;;;;4951309;29;20137;-82
2022/01/05 16:21:18;;;;;;;5.65;1.55;;;3.40;88.80;;;;;;4950306;29;20394;-82
2022/01/05 16:23:45;;;;;;;7.72;1.27;;;3.30;89.50;;;;;;4950966;29;20146;-81
2022/01/05 16:26:14;;;;;;;5.93;1.50;;;3.30;89.30;;;;;;4950882;29;20057;-84
2022/01/05 16:28:41;;;;;;;4.60;1.40;;;3.30;89.60;;;;;;4945121;29;20081;-83
2022/01/05 16:31:09;;;;;;;7.18;1.58;;;3.30;90.00;;;;;;4950617;29;20055;-81
2022/01/05 16:33:38;;;;;;;3.65;1.10;;;3.30;90.10;;;;;;4955457;28;20126;-81
2022/01/05 16:36:08;;;;;;;9.50;1.40;;;3.30;90.30;;;;;;4951047;29;20540;-81
2022/01/05 16:38:37;;;;;;;9.88;1.77;;;3.30;89.80;;;;;;4951123;29;20078;-82
2022/01/05 16:41:04;;;;;;;7.68;1.50;;;3.30;89.90;;;;;;4951818;29;20138;-82
2022/01/05 16:43:31;;;;;;;5.30;1.50;;;3.30;89.80;;;;;;4934444;29;20126;-81
2022/01/05 16:46:00;;;;;;;5.95;1.58;;;3.30;89.80;;;;;;4950925;29;20313;-80
2022/01/05 16:48:28;;;;;;;5.10;1.25;;;3.30;89.50;;;;;;4951046;29;20043;-81
2022/01/05 16:50:56;;;;;;;7.07;1.83;;;3.20;90.00;;;;;;4951202;29;20051;-82
2022/01/05 16:53:24;;;;;;;7.45;1.73;;;3.20;90.50;;;;;;4951155;29;20087;-81
2022/01/05 16:55:53;;;;;;;6.20;1.70;;;3.20;90.60;;;;;;4950641;29;20051;-81
2022/01/05 17:01:06;;;;;;;7.47;1.95;;;3.20;90.90;;;;;;4949579;29;20186;-80
2022/01/05 17:03:33;;;;;;;7.47;2.10;;;3.20;91.10;;;;;;4950519;29;20047;-79
2022/01/05 17:06:01;;;;;;;6.32;2.00;;;3.20;91.00;;;;;;4950927;29;20512;-80
2022/01/05 17:08:28;;;;;;;6.53;1.80;;;3.30;91.10;;;;;;4950632;29;20052;-82
2022/01/05 17:10:57;;;;;;;8.13;2.35;;;3.30;91.10;;;;;;4950477;29;20047;-80
2022/01/05 17:13:24;;;;;;;8.48;2.22;;;3.30;91.00;;;;;;4949983;29;20113;-82
2022/01/05 17:15:53;;;;;;;7.13;2.00;;;3.40;91.00;;;;;;4950533;29;20122;-80
2022/01/05 17:18:22;;;;;;;7.72;1.95;;;3.40;91.00;;;;;;4950677;29;20055;-80
2022/01/05 17:20:50;;;;;;;6.10;1.60;;;3.40;91.10;;;;;;4950738;29;20519;-79
2022/01/05 17:23:17;;;;;;;6.72;1.70;;;3.40;91.10;;;;;;4951469;28;20083;-78
2022/01/05 17:25:45;;;;;;;7.47;1.88;;;3.40;90.90;;;;;;4954259;28;20047;-80
2022/01/05 17:28:13;;;;;;;7.43;2.30;;;3.50;91.00;;;;;;4954239;28;20078;-79
2022/01/05 17:30:41;;;;;;;5.95;1.73;;;3.50;91.10;;;;;;4943662;29;20054;-81
2022/01/05 17:33:08;;;;;;;7.13;1.85;;;3.50;91.10;;;;;;4951314;29;20130;-82
2022/01/05 17:35:37;;;;;;;10.07;1.98;;;3.50;91.00;;;;;;4954401;29;20134;-82
2022/01/05 17:38:06;;;;;;;5.35;1.63;;;3.50;91.00;;;;;;4953862;29;20515;-82
2022/01/05 17:40:33;;;;;;;5.40;1.58;;;3.50;91.20;;;;;;4955398;29;20047;-80
2022/01/05 17:43:01;;;;;;;5.88;1.80;;;3.50;91.00;;;;;;4954125;29;20126;-82
2022/01/05 17:45:29;;;;;;;5.40;1.58;;;3.50;91.20;;;;;;4951601;29;20420;-80
2022/01/05 17:47:56;;;;;;;6.70;1.70;;;3.50;91.20;;;;;;4934711;29;20046;-80
2022/01/05 17:50:23;;;;;;;5.82;1.50;;;3.50;91.30;;;;;;4953626;29;20570;-80
2022/01/05 17:52:51;;;;;;;4.30;1.30;;;3.50;92.10;;;;;;4953076;29;20039;-82
2022/01/05 17:55:18;;;;;;;7.10;1.77;;;3.60;92.70;;;;;;4937021;29;20047;-82
2022/01/05 17:57:46;;;;;;;7.68;1.80;;;3.60;92.40;;;;;;4954049;29;20071;-82
2022/01/05 18:00:15;;;;;;;7.25;2.22;;;3.60;92.30;;;;;;4953800;29;20061;-78
2022/01/05 18:02:43;;;;;;;7.03;1.75;;;3.60;92.10;;;;;;4953577;29;20074;-79
2022/01/05 18:05:10;;;;;;;9.93;1.95;;;3.60;91.80;;;;;;4952914;29;20106;-78
2022/01/05 18:07:37;;;;;;;8.70;1.90;;;3.60;91.70;;;;;;4953731;29;20090;-78
2022/01/05 18:10:06;;;;;;;8.52;1.90;;;3.60;91.70;;;;;;4953087;29;20098;-79
2022/01/05 18:12:33;;;;;;;9.15;2.58;;;3.60;91.70;;;;;;4953955;29;20054;-79
2022/01/05 18:15:00;;;;;;;8.00;2.30;;;3.60;91.70;;;;;;4954308;29;20126;-79
2022/01/05 18:17:27;;;;;;;7.32;1.83;;;3.60;91.70;;;;;;4953182;28;20445;-79
2022/01/05 18:19:56;;;;;;;7.20;2.33;;;3.60;91.70;;;;;;4953465;29;20422;-79
2022/01/05 18:22:24;;;;;;;6.32;1.95;;;3.60;91.90;;;;;;4952432;29;20146;-78
2022/01/05 18:24:51;;;;;;;7.78;2.15;;;3.60;91.80;;;;;;4953205;29;20059;-77
2022/01/05 18:27:18;;;;;;;8.18;2.00;;;3.60;92.20;;;;;;4951630;29;20047;-80
2022/01/05 18:29:47;;;;;;;9.38;2.00;;;3.50;92.00;;;;;;4954628;29;20481;-79
2022/01/05 18:32:14;;;;;;;9.18;2.03;;;3.50;92.00;;;;;;4953051;29;20098;-77
2022/01/05 18:34:42;;;;;;;6.75;2.00;;;3.50;91.90;;;;;;4951635;28;20179;-81
2022/01/05 18:37:12;;;;;;;7.28;2.20;;;3.50;92.00;;;;;;4952525;29;20134;-79
2022/01/05 18:39:39;;;;;;;7.68;1.67;;;3.50;91.90;;;;;;4953076;29;20486;-80
2022/01/05 18:42:08;;;;;;;8.10;2.05;;;3.50;92.10;;;;;;4953022;29;20051;-80
2022/01/05 18:44:36;;;;;;;8.45;1.95;;;3.50;92.10;;;;;;4952446;29;20058;-79
2022/01/05 18:47:04;;;;;;;6.65;2.42;;;3.60;92.20;;;;;;4953182;29;20409;-79
2022/01/05 18:49:32;;;;;;;8.05;2.20;;;3.50;92.10;;;;;;4953120;29;20569;-81
2022/01/05 18:51:59;;;;;;;6.78;1.85;;;3.50;92.10;;;;;;4951057;29;20106;-80
2022/01/05 18:54:27;;;;;;;8.40;1.80;;;3.50;92.00;;;;;;4952528;28;20061;-79
2022/01/05 18:56:54;;;;;;;6.32;1.98;;;3.50;92.00;;;;;;4952711;29;20139;-78
2022/01/05 18:59:21;;;;;;;10.07;2.28;;;3.50;92.40;;;;;;4952743;29;20138;-82
2022/01/05 19:01:49;;;;;;;7.05;1.80;;;3.50;92.00;;;;;;4951283;28;20148;-82
2022/01/05 19:04:16;;;;;;;11.07;2.65;;;3.50;92.10;;;;;;4952485;29;20130;-79
2022/01/05 19:06:43;;;;;;;4.90;1.77;;;3.50;92.30;;;;;;4952583;29;20051;-81
2022/01/05 19:09:10;;;;;;;6.97;2.00;;;3.50;92.30;;;;;;4952349;29;20054;-81
2022/01/05 19:11:39;;;;;;;8.77;2.25;;;3.50;92.50;;;;;;4952851;28;20139;-82
2022/01/05 19:14:10;;;;;;;7.53;2.00;;;3.50;92.60;;;;;;4951860;29;20194;-83
2022/01/05 19:16:37;;;;;;;7.00;2.42;;;3.50;92.80;;;;;;4946035;29;20048;-77
2022/01/05 19:19:05;;;;;;;5.47;2.17;;;3.50;92.90;;;;;;4952248;29;20137;-77
2022/01/05 19:21:32;;;;;;;8.25;2.05;;;3.50;93.00;;;;;;4952382;29;20461;-78
2022/01/05 19:23:59;;;;;;;10.38;2.17;;;3.50;93.20;;;;;;4952133;29;20405;-79
2022/01/05 19:26:27;;;;;;;8.25;2.28;;;3.50;93.40;;;;;;4952046;28;20178;-78
2022/01/05 19:28:55;;;;;;;7.93;2.10;;;3.40;93.40;;;;;;4951698;29;20485;-77
2022/01/05 19:31:22;;;;;;;8.70;2.20;;;3.50;93.50;;;;;;4952485;29;20419;-78
2022/01/05 19:33:49;;;;;;;7.68;2.03;;;3.50;93.50;;;;;;4952366;29;20102;-80
2022/01/05 19:36:17;;;;;;;9.88;2.55;;;3.40;93.70;;;;;;4951407;28;20071;-79